createdAt,value
2022-12-14T00:02:49.404Z,98636.75
2022-12-14T00:06:01.416Z,98639.71
2022-12-14T00:09:13.481Z,98641.64
2022-12-14T00:12:25.316Z,98639.20
2022-12-14T00:15:37.849Z,98637.94
2022-12-14T00:18:54.982Z,98635.90
2022-12-14T00:22:06.864Z,98640.47
2022-12-14T00:25:18.924Z,98640.34
2022-12-14T00:28:30.873Z,98642.92
2022-12-14T00:31:42.684Z,98631.74
2022-12-14T00:34:54.666Z,98633.70
2022-12-14T00:38:06.579Z,98625.06
2022-12-14T00:41:19.011Z,98633.56
2022-12-14T00:44:31.394Z,98624.96
2022-12-14T00:47:43.182Z,98628.54
2022-12-14T00:50:56.566Z,98635.83
2022-12-14T00:54:08.393Z,98641.39
2022-12-14T00:57:20.543Z,98634.82
2022-12-14T01:00:32.314Z,98639.08
2022-12-14T01:03:44.189Z,98636.45
2022-12-14T01:06:57.663Z,98626.20
2022-12-14T01:10:10.627Z,98626.97
2022-12-14T01:13:24.240Z,98623.66
2022-12-14T01:16:36.380Z,98628.16
2022-12-14T01:19:49.255Z,98628.25
2022-12-14T01:23:03.241Z,98629.27
2022-12-14T01:26:16.204Z,98617.25
2022-12-14T01:29:28.360Z,98621.55
2022-12-14T01:32:41.811Z,98614.67
2022-12-14T01:35:53.583Z,98619.67
2022-12-14T01:39:09.559Z,98612.09
2022-12-14T01:42:22.726Z,98617.09
2022-12-14T01:45:35.085Z,98606.09
2022-12-14T01:48:46.927Z,98601.80
2022-12-14T01:52:04.264Z,98600.98
2022-12-14T01:55:20.761Z,98598.25
2022-12-14T01:58:34.469Z,98600.16
2022-12-14T02:01:49.083Z,98589.06
2022-12-14T02:05:05.573Z,98591.80
2022-12-14T02:08:18.443Z,98590.17
2022-12-14T02:11:39.222Z,98587.63
2022-12-14T02:14:51.890Z,98588.49
2022-12-14T02:18:05.328Z,98590.20
2022-12-14T02:21:36.960Z,98598.02
2022-12-14T02:25:24.641Z,98591.27
2022-12-14T02:29:02.992Z,98595.88
2022-12-14T02:32:42.398Z,98588.00
2022-12-14T02:35:59.661Z,98584.44
2022-12-14T02:39:18.593Z,98591.35
2022-12-14T02:42:38.552Z,98583.71
2022-12-14T02:45:54.879Z,98577.70
2022-12-14T02:49:09.259Z,98585.34
2022-12-14T02:52:26.872Z,98574.31
2022-12-14T02:55:43.114Z,98578.14
2022-12-14T02:58:56.966Z,98578.38
2022-12-14T03:02:10.568Z,98575.80
2022-12-14T03:05:23.500Z,98568.16
2022-12-14T03:08:38.968Z,98569.95
2022-12-14T03:11:56.314Z,98571.52
2022-12-14T03:15:11.959Z,98571.52
2022-12-14T03:18:28.391Z,98579.38
2022-12-14T03:21:44.202Z,98577.73
2022-12-14T03:25:01.395Z,98572.70
2022-12-14T03:28:17.708Z,98579.48
2022-12-14T03:31:35.978Z,98563.98
2022-12-14T03:34:53.235Z,98569.31
2022-12-14T03:38:11.283Z,98569.28
2022-12-14T03:41:30.815Z,98577.23
2022-12-14T03:44:49.327Z,98576.20
2022-12-14T03:48:10.984Z,98569.42
2022-12-14T03:51:28.411Z,98565.28
2022-12-14T03:54:49.523Z,98554.11
2022-12-14T03:58:15.593Z,98556.56
2022-12-14T04:01:34.840Z,98558.57
2022-12-14T04:04:52.137Z,98558.50
2022-12-14T04:08:10.981Z,98549.22
2022-12-14T04:11:39.203Z,98555.25
2022-12-14T04:15:10.670Z,98557.64
2022-12-14T04:18:38.198Z,98549.11
2022-12-14T04:21:55.211Z,98548.03
2022-12-14T04:25:26.508Z,98545.24
2022-12-14T04:28:58.567Z,98547.10
2022-12-14T04:32:15.555Z,98543.00
2022-12-14T04:35:33.540Z,98520.30
2022-12-14T04:38:48.591Z,98530.37
2022-12-14T04:42:04.704Z,98532.12
2022-12-14T04:45:22.527Z,98539.86
2022-12-14T04:48:41.495Z,98537.40
2022-12-14T04:52:04.991Z,98533.80
2022-12-14T04:55:19.510Z,98539.54
2022-12-14T04:58:34.884Z,98535.25
2022-12-14T05:01:55.981Z,98529.22
2022-12-14T05:05:14.798Z,98524.23
2022-12-14T05:08:35.597Z,98521.80
2022-12-14T05:11:55.058Z,98513.95
2022-12-14T05:15:13.454Z,98508.69
2022-12-14T05:18:26.171Z,98502.02
2022-12-14T05:21:54.033Z,98499.38
2022-12-14T05:25:05.843Z,98501.31
2022-12-14T05:28:19.369Z,98499.53
2022-12-14T05:31:32.052Z,98493.72
2022-12-14T05:34:44.151Z,98486.11
2022-12-14T05:37:56.182Z,98497.33
2022-12-14T05:41:08.398Z,98493.00
2022-12-14T05:44:20.367Z,98488.65
2022-12-14T05:47:32.937Z,98492.97
2022-12-14T05:50:44.819Z,98493.61
2022-12-14T05:53:57.149Z,98494.50
2022-12-14T05:57:09.892Z,98493.68
2022-12-14T06:00:23.577Z,98496.39
2022-12-14T06:03:35.692Z,98502.42
2022-12-14T06:06:47.907Z,98504.24
2022-12-14T06:10:02.659Z,98488.75
2022-12-14T06:13:14.567Z,98494.07
2022-12-14T06:16:29.732Z,98507.67
2022-12-14T06:19:42.532Z,98499.89
2022-12-14T06:22:56.566Z,98501.67
2022-12-14T06:26:08.714Z,98500.06
2022-12-14T06:29:24.305Z,98489.96
2022-12-14T06:32:36.528Z,98485.61
2022-12-14T06:35:52.158Z,98476.88
2022-12-14T06:39:07.943Z,98474.41
2022-12-14T06:42:19.863Z,98471.88
2022-12-14T06:45:32.344Z,98479.34
2022-12-14T06:48:44.733Z,98477.84
2022-12-14T06:51:57.797Z,98485.36
2022-12-14T06:55:11.690Z,98480.98
2022-12-14T06:58:25.754Z,98480.19
2022-12-14T07:01:37.836Z,98479.23
2022-12-14T07:04:50.663Z,98484.37
2022-12-14T07:08:03.080Z,98479.12
2022-12-14T07:11:17.667Z,98479.00
2022-12-14T07:14:29.628Z,98469.44
2022-12-14T07:17:43.163Z,98462.66
2022-12-14T07:21:05.100Z,98465.15
2022-12-14T07:24:17.613Z,98464.14
2022-12-14T07:27:29.780Z,98458.80
2022-12-14T07:30:41.753Z,98448.52
2022-12-14T07:33:56.079Z,98455.41
2022-12-14T07:37:08.379Z,98448.63
2022-12-14T07:40:21.625Z,98457.25
2022-12-14T07:43:33.591Z,98451.86
2022-12-14T07:46:46.674Z,98449.13
2022-12-14T07:49:58.960Z,98453.16
2022-12-14T07:53:11.584Z,98429.33
2022-12-14T07:56:26.746Z,98441.16
2022-12-14T07:59:39.223Z,98439.28
2022-12-14T08:02:51.575Z,98437.34
2022-12-14T08:06:03.681Z,98444.84
2022-12-14T08:09:17.424Z,98433.73
2022-12-14T08:12:29.680Z,98433.73
2022-12-14T08:15:45.789Z,98434.36
2022-12-14T08:18:59.157Z,98428.27
2022-12-14T08:22:11.823Z,98428.32
2022-12-14T08:25:24.244Z,98430.44
2022-12-14T08:28:38.548Z,98426.91
2022-12-14T08:31:50.917Z,98425.02
2022-12-14T08:35:02.812Z,98422.98
2022-12-14T08:38:15.483Z,98413.41
2022-12-14T08:41:28.044Z,98419.65
2022-12-14T08:44:39.990Z,98419.31
2022-12-14T08:47:51.981Z,98420.84
2022-12-14T08:51:09.735Z,98420.08
2022-12-14T08:54:24.286Z,98416.88
2022-12-14T08:57:36.194Z,98412.59
2022-12-14T09:00:48.376Z,98396.95
2022-12-14T09:04:00.257Z,98400.77
2022-12-14T09:07:12.154Z,98396.23
2022-12-14T09:10:24.508Z,98399.37
2022-12-14T09:13:37.650Z,98386.44
2022-12-14T09:16:49.744Z,98387.08
2022-12-14T09:20:02.245Z,98376.34
2022-12-14T09:23:14.146Z,98381.34
2022-12-14T09:26:27.953Z,98381.93
2022-12-14T09:29:40.419Z,98378.77
2022-12-14T09:32:52.427Z,98371.56
2022-12-14T09:36:09.777Z,98364.73
2022-12-14T09:39:22.033Z,98372.94
2022-12-14T09:42:58.062Z,98374.58
2022-12-14T09:46:22.468Z,98360.22
2022-12-14T09:49:38.859Z,98360.05
2022-12-14T09:52:55.513Z,98349.51
2022-12-14T09:56:09.107Z,98353.23
2022-12-14T09:59:23.762Z,98344.70
2022-12-14T10:02:47.191Z,98337.47
2022-12-14T10:06:17.789Z,98337.86
2022-12-14T10:09:37.399Z,98316.91
2022-12-14T10:12:59.440Z,98314.59
2022-12-14T10:16:22.773Z,98329.14
2022-12-14T10:19:46.494Z,98323.08
2022-12-14T10:23:00.442Z,98330.25
2022-12-14T10:26:17.078Z,98328.47
2022-12-14T10:29:37.311Z,98331.59
2022-12-14T10:32:53.628Z,98322.58
2022-12-14T10:36:11.987Z,98312.42
2022-12-14T10:39:34.634Z,98297.80
2022-12-14T10:42:53.630Z,98294.95
2022-12-14T10:46:14.297Z,98301.85
2022-12-14T10:49:31.110Z,98297.38
2022-12-14T10:52:46.508Z,98296.58
2022-12-14T10:56:03.114Z,98294.94
2022-12-14T10:59:39.707Z,98290.16
2022-12-14T11:02:51.805Z,98282.14
2022-12-14T11:06:09.114Z,98264.91
2022-12-14T11:09:30.366Z,98266.41
2022-12-14T11:12:42.960Z,98268.88
2022-12-14T11:15:57.537Z,98260.41
2022-12-14T11:19:15.562Z,98248.88
2022-12-14T11:22:27.679Z,98245.97
2022-12-14T11:25:52.190Z,98238.88
2022-12-14T11:29:06.668Z,98238.54
2022-12-14T11:32:28.520Z,98233.13
2022-12-14T11:35:40.764Z,98233.73
2022-12-14T11:39:02.142Z,98230.88
2022-12-14T11:42:19.874Z,98223.19
2022-12-14T11:45:40.526Z,98215.56
2022-12-14T11:48:55.742Z,98218.73
2022-12-14T11:52:15.445Z,98212.41
2022-12-14T11:55:30.454Z,98223.04
2022-12-14T11:58:47.683Z,98212.49
2022-12-14T12:01:59.999Z,98205.53
2022-12-14T12:05:15.945Z,98197.34
2022-12-14T12:08:32.090Z,98201.50
2022-12-14T12:11:48.481Z,98195.98
2022-12-14T12:15:04.464Z,98187.67
2022-12-14T12:18:21.245Z,98187.30
2022-12-14T12:21:33.786Z,98182.19
2022-12-14T12:25:23.633Z,98180.67
2022-12-14T12:28:14.777Z,98178.81
2022-12-14T12:31:33.882Z,98169.94
2022-12-14T12:34:52.028Z,98164.22
2022-12-14T12:38:10.123Z,98158.92
2022-12-14T12:41:30.691Z,98147.53
2022-12-14T12:44:53.611Z,98143.09
2022-12-14T12:48:10.353Z,98133.98
2022-12-14T12:51:23.285Z,98132.88
2022-12-14T12:54:40.541Z,98114.66
2022-12-14T12:57:56.470Z,98111.30
2022-12-14T13:01:15.534Z,98115.91
2022-12-14T13:04:38.533Z,98103.87
2022-12-14T13:07:54.857Z,98086.70
2022-12-14T13:11:27.573Z,98091.02
2022-12-14T13:14:32.546Z,98081.63
2022-12-14T13:17:50.444Z,98079.72
2022-12-14T13:21:03.713Z,98078.97
2022-12-14T13:24:22.440Z,98071.36
2022-12-14T13:28:10.094Z,98063.30
2022-12-14T13:31:32.891Z,98050.27
2022-12-14T13:34:55.523Z,98040.04
2022-12-14T13:38:33.376Z,98033.06
2022-12-14T13:41:49.387Z,98022.73
2022-12-14T13:45:08.202Z,98021.95
2022-12-14T13:48:28.865Z,98021.77
2022-12-14T13:51:44.796Z,98001.41
2022-12-14T13:54:59.821Z,97993.66
2022-12-14T13:58:23.919Z,97984.38
2022-12-14T14:02:05.884Z,97989.45
2022-12-14T14:05:50.125Z,97963.53
2022-12-14T14:09:03.360Z,97978.02
2022-12-14T14:12:48.274Z,97953.98
2022-12-14T14:19:26.909Z,97942.55
2022-12-14T14:22:38.787Z,97945.20
2022-12-14T14:25:55.985Z,97938.93
2022-12-14T14:29:25.024Z,97924.16
2022-12-14T14:32:53.794Z,97918.25
2022-12-14T14:36:24.099Z,97910.46
2022-12-14T14:40:05.934Z,97907.02
2022-12-14T14:43:06.146Z,97905.96
2022-12-14T14:46:23.203Z,97911.84
2022-12-14T14:49:38.621Z,97896.14
2022-12-14T14:53:19.806Z,97881.41
2022-12-14T14:56:51.775Z,97869.52
2022-12-14T15:00:08.558Z,97848.77
2022-12-14T15:03:22.399Z,97847.46
2022-12-14T15:06:39.301Z,97849.39
2022-12-14T15:09:58.129Z,97839.82
2022-12-14T15:13:15.956Z,97836.08
2022-12-14T15:16:37.556Z,97818.25
2022-12-14T15:19:57.115Z,97816.55
2022-12-14T15:23:11.566Z,97814.81
2022-12-14T15:26:28.918Z,97803.58
2022-12-14T15:29:41.305Z,97801.77
2022-12-14T15:32:59.008Z,97790.23
2022-12-14T15:36:16.123Z,97788.77
2022-12-14T15:39:44.261Z,97779.89
2022-12-14T15:42:59.638Z,97777.88
2022-12-14T15:46:21.253Z,97767.53
2022-12-14T15:49:33.590Z,97762.20
2022-12-14T15:52:46.708Z,97761.09
2022-12-14T15:56:03.979Z,97758.59
2022-12-14T15:59:23.053Z,97747.12
2022-12-14T16:02:39.757Z,97750.20
2022-12-14T16:05:52.216Z,97746.69
2022-12-14T16:09:10.004Z,97731.05
2022-12-14T16:12:28.923Z,97727.69
2022-12-14T16:15:41.918Z,97717.63
2022-12-14T16:19:20.257Z,97706.16
2022-12-14T16:22:27.912Z,97714.60
2022-12-14T16:25:44.817Z,97702.31
2022-12-14T16:29:13.736Z,97707.24
2022-12-14T16:32:28.785Z,97702.80
2022-12-14T16:35:43.380Z,97696.41
2022-12-14T16:39:06.098Z,97700.39
2022-12-14T16:42:28.497Z,97696.88
2022-12-14T16:46:16.314Z,97689.88
2022-12-14T16:49:44.258Z,97691.25
2022-12-14T16:53:25.947Z,97692.77
2022-12-14T16:56:51.117Z,97693.48
2022-12-14T17:00:10.206Z,97694.09
2022-12-14T17:03:34.803Z,97698.13
2022-12-14T17:07:07.150Z,97691.37
2022-12-14T17:10:34.313Z,97685.05
2022-12-14T17:13:54.932Z,97691.07
2022-12-14T17:17:12.880Z,97686.41
2022-12-14T17:20:29.291Z,97694.09
2022-12-14T17:23:44.960Z,97696.16
2022-12-14T17:26:57.878Z,97689.77
2022-12-14T17:30:11.779Z,97694.56
2022-12-14T17:33:24.980Z,97682.77
2022-12-14T17:36:37.921Z,97682.82
2022-12-14T17:39:50.439Z,97686.71
2022-12-14T17:43:05.105Z,97685.78
2022-12-14T17:46:19.545Z,97682.88
2022-12-14T17:49:39.305Z,97681.89
2022-12-14T17:52:54.188Z,97684.26
2022-12-14T17:56:07.354Z,97684.09
2022-12-14T17:59:19.310Z,97676.93
2022-12-14T18:02:38.107Z,97664.56
2022-12-14T18:05:53.200Z,97667.68
2022-12-14T18:09:05.629Z,97663.17
2022-12-14T18:12:23.574Z,97655.30
2022-12-14T18:15:44.019Z,97658.66
2022-12-14T18:18:58.228Z,97651.58
2022-12-14T18:22:11.442Z,97635.33
2022-12-14T18:25:33.212Z,97642.55
2022-12-14T18:28:46.396Z,97651.08
2022-12-14T18:31:58.754Z,97642.39
2022-12-14T18:35:13.713Z,97629.11
2022-12-14T18:38:26.059Z,97619.97
2022-12-14T18:41:38.491Z,97619.21
2022-12-14T18:44:50.491Z,97604.41
2022-12-14T18:48:03.802Z,97602.58
2022-12-14T18:51:21.834Z,97594.64
2022-12-14T18:54:33.998Z,97580.59
2022-12-14T18:57:46.543Z,97585.84
2022-12-14T19:01:02.678Z,97587.34
2022-12-14T19:04:14.930Z,97573.38
2022-12-14T19:07:26.990Z,97577.58
2022-12-14T19:10:40.186Z,97570.61
2022-12-14T19:13:52.394Z,97562.67
2022-12-14T19:17:04.377Z,97567.77
2022-12-14T19:20:19.758Z,97559.09
2022-12-14T19:23:32.113Z,97550.37
2022-12-14T19:26:49.534Z,97545.84
2022-12-14T19:30:03.113Z,97530.47
2022-12-14T19:33:15.767Z,97535.65
2022-12-14T19:36:28.392Z,97536.41
2022-12-14T19:39:40.704Z,97530.47
2022-12-14T19:42:53.570Z,97525.28
2022-12-14T19:46:05.930Z,97521.75
2022-12-14T19:49:18.647Z,97515.56
2022-12-14T19:52:30.844Z,97517.91
2022-12-14T19:55:42.935Z,97521.59
2022-12-14T19:58:56.855Z,97520.25
2022-12-14T20:02:11.518Z,97521.28
2022-12-14T20:05:27.337Z,97508.03
2022-12-14T20:08:41.252Z,97494.81
2022-12-14T20:11:53.478Z,97488.88
2022-12-14T20:15:05.724Z,97495.81
2022-12-14T20:18:17.629Z,97492.31
2022-12-14T20:21:30.714Z,97500.09
2022-12-14T20:24:46.345Z,97499.75
2022-12-14T20:28:00.334Z,97508.77
2022-12-14T20:31:20.461Z,97510.52
2022-12-14T20:34:34.279Z,97527.74
2022-12-14T20:37:46.757Z,97510.92
2022-12-14T20:40:59.085Z,97503.30
2022-12-14T20:44:16.256Z,97501.80
2022-12-14T20:47:28.489Z,97501.45
2022-12-14T20:50:40.853Z,97505.64
2022-12-14T20:54:05.076Z,97506.48
2022-12-14T20:57:23.936Z,97509.63
2022-12-14T21:00:59.552Z,97509.28
2022-12-14T21:04:18.129Z,97515.80
2022-12-14T21:07:40.099Z,97510.68
2022-12-14T21:11:11.210Z,97507.08
2022-12-14T21:14:34.681Z,97501.72
2022-12-14T21:17:53.815Z,97505.98
2022-12-14T21:21:26.452Z,97510.91
2022-12-14T21:28:31.860Z,97506.53
2022-12-14T21:32:07.647Z,97517.66
2022-12-14T21:35:36.301Z,97507.38
2022-12-14T21:38:49.102Z,97502.28
2022-12-14T21:42:16.980Z,97515.91
2022-12-14T21:45:29.119Z,97530.28
2022-12-14T21:48:42.659Z,97531.13
2022-12-14T21:51:56.745Z,97524.08
2022-12-14T21:55:09.290Z,97518.05
2022-12-14T21:58:23.784Z,97513.05
2022-12-14T22:01:35.798Z,97525.09
2022-12-14T22:04:48.661Z,97528.27
2022-12-14T22:08:00.615Z,97520.38
2022-12-14T22:11:13.230Z,97528.00
2022-12-14T22:14:28.633Z,97526.42
2022-12-14T22:17:40.491Z,97524.73
2022-12-14T22:20:52.781Z,97524.73
2022-12-14T22:24:04.770Z,97524.56
2022-12-14T22:27:17.322Z,97520.13
2022-12-14T22:30:31.814Z,97517.52
2022-12-14T22:33:43.380Z,97520.67
2022-12-14T22:36:55.964Z,97520.67
2022-12-14T22:40:08.362Z,97518.81
2022-12-14T22:43:25.851Z,97513.26
2022-12-14T22:46:35.906Z,97517.44
2022-12-14T22:49:47.946Z,97515.86
2022-12-14T22:52:59.953Z,97507.22
2022-12-14T22:56:18.083Z,97508.91
2022-12-14T22:59:34.444Z,97508.06
2022-12-14T23:02:48.175Z,97513.84
2022-12-14T23:06:02.282Z,97511.04
2022-12-14T23:09:29.432Z,97512.52
2022-12-14T23:12:55.947Z,97508.81
2022-12-14T23:16:23.428Z,97516.44
2022-12-14T23:19:50.149Z,97511.41
2022-12-14T23:23:17.018Z,97507.53
2022-12-14T23:26:43.620Z,97505.84
2022-12-14T23:30:10.391Z,97504.19
2022-12-14T23:33:36.488Z,97512.73
2022-12-14T23:37:03.184Z,97522.01
2022-12-14T23:40:31.952Z,97514.02
2022-12-14T23:43:58.835Z,97524.23
2022-12-14T23:47:25.563Z,97529.23
2022-12-14T23:50:52.113Z,97524.88
2022-12-14T23:54:18.735Z,97523.30
2022-12-14T23:57:45.603Z,97526.09
